Time;durP1;ratioP1;P1;durP2;ratioP2;P2;SDS_P1;SDS_P2;PMS_P1;PMS_P2;Temp;Humidity;BMP_temperature;BMP_pressure;BME280_temperature;BME280_humidity;BME280_pressure;Samples;Min_cycle;Max_cycle;Signal;HPM_P1;HPM_P2
2021/01/19 00:01:18;;;;;;;7.10;2.63;;;3.20;80.30;;;;;;6250419;22;20004;-80
2021/01/19 00:03:44;;;;;;;3.88;2.05;;;3.20;80.40;;;;;;6224930;22;20007;-80
2021/01/19 00:06:10;;;;;;;6.47;2.67;;;3.20;80.20;;;;;;6225346;22;20008;-80
2021/01/19 00:08:36;;;;;;;3.08;1.60;;;3.20;80.20;;;;;;6250065;22;20054;-80
2021/01/19 00:11:03;;;;;;;5.15;2.50;;;3.20;80.20;;;;;;6277540;22;20003;-79
2021/01/19 00:13:29;;;;;;;3.28;1.58;;;3.20;80.40;;;;;;6225140;22;20457;-80
2021/01/19 00:15:55;;;;;;;8.95;3.00;;;3.20;80.30;;;;;;6224646;22;20000;-80
2021/01/19 00:18:20;;;;;;;5.10;1.55;;;3.20;80.30;;;;;;6250419;22;20010;-80
2021/01/19 00:20:47;;;;;;;6.60;2.63;;;3.20;80.20;;;;;;6225120;22;20031;-80
2021/01/19 00:23:13;;;;;;;6.68;2.70;;;3.20;80.10;;;;;;6225067;22;20038;-80
2021/01/19 00:25:42;;;;;;;5.70;2.42;;;3.20;80.10;;;;;;6276991;22;20361;-80
2021/01/19 00:28:12;;;;;;;4.90;2.17;;;3.20;80.20;;;;;;6249964;22;20007;-80
2021/01/19 00:30:42;;;;;;;5.68;2.45;;;3.20;80.20;;;;;;6250119;22;20014;-80
2021/01/19 00:33:09;;;;;;;5.55;2.20;;;3.20;80.20;;;;;;6249904;22;20008;-80
2021/01/19 00:35:35;;;;;;;5.47;2.35;;;3.20;80.00;;;;;;6250310;22;20003;-80
2021/01/19 00:38:02;;;;;;;5.00;2.25;;;3.20;80.10;;;;;;6249723;22;20008;-80
2021/01/19 00:40:29;;;;;;;7.18;2.45;;;3.20;80.20;;;;;;6277119;22;20003;-80
2021/01/19 00:42:56;;;;;;;4.45;2.33;;;3.20;80.20;;;;;;6224527;22;20015;-80
2021/01/19 00:45:22;;;;;;;4.28;1.98;;;3.20;80.20;;;;;;6224608;22;20011;-80
2021/01/19 00:47:47;;;;;;;6.30;2.70;;;3.20;80.00;;;;;;6219655;22;20024;-80
2021/01/19 00:50:14;;;;;;;4.93;2.28;;;3.20;80.30;;;;;;6246381;23;20050;-80
2021/01/19 00:52:40;;;;;;;3.47;2.13;;;3.20;80.20;;;;;;6194332;23;20020;-80
2021/01/19 00:55:09;;;;;;;5.50;2.50;;;3.20;80.30;;;;;;6219302;23;20004;-80
2021/01/19 00:57:36;;;;;;;7.13;2.70;;;3.20;80.20;;;;;;6219439;23;20333;-80
2021/01/19 01:00:08;;;;;;;5.45;2.30;;;3.20;80.20;;;;;;6219341;23;20008;-80
2021/01/19 01:02:34;;;;;;;5.95;2.70;;;3.20;80.30;;;;;;6219449;23;20466;-80
2021/01/19 01:05:01;;;;;;;5.65;2.10;;;3.30;80.30;;;;;;6194404;23;20035;-80
2021/01/19 01:07:38;;;;;;;7.15;3.00;;;3.30;80.20;;;;;;6219244;23;20012;-80
2021/01/19 01:10:12;;;;;;;5.70;2.25;;;3.30;80.10;;;;;;6219225;23;20036;-80
2021/01/19 01:12:43;;;;;;;6.03;2.45;;;3.20;80.00;;;;;;6219301;23;20020;-80
2021/01/19 01:15:10;;;;;;;5.15;2.28;;;3.20;79.90;;;;;;6219594;23;20000;-80
2021/01/19 01:17:40;;;;;;;5.47;2.55;;;3.20;79.90;;;;;;6219244;23;20015;-80
2021/01/19 01:20:12;;;;;;;2.80;1.45;;;3.20;80.10;;;;;;6219501;23;20008;-80
2021/01/19 01:22:48;;;;;;;8.85;2.83;;;3.30;80.20;;;;;;6219114;23;20012;-80
2021/01/19 01:25:15;;;;;;;5.80;2.63;;;3.30;80.20;;;;;;6219215;23;20046;-80
2021/01/19 01:27:42;;;;;;;3.20;1.65;;;3.30;80.10;;;;;;6219000;23;20488;-80
2021/01/19 01:30:09;;;;;;;6.50;2.63;;;3.30;80.10;;;;;;6218954;23;20046;-80
2021/01/19 01:32:43;;;;;;;1.80;1.00;;;3.30;80.00;;;;;;6245871;23;20020;-80
2021/01/19 01:35:10;;;;;;;6.45;2.53;;;3.30;80.00;;;;;;6245979;23;20083;-80
2021/01/19 01:37:43;;;;;;;4.35;2.13;;;3.30;80.00;;;;;;6193819;23;20023;-80
2021/01/19 01:40:10;;;;;;;6.38;2.13;;;3.30;80.00;;;;;;6219022;23;20027;-80
2021/01/19 01:42:36;;;;;;;4.18;2.00;;;3.30;80.20;;;;;;6219009;23;20027;-80
2021/01/19 01:45:02;;;;;;;6.20;1.95;;;3.30;80.10;;;;;;6194242;23;20000;-80
2021/01/19 01:47:28;;;;;;;4.40;1.85;;;3.30;80.00;;;;;;6218703;22;20453;-80
2021/01/19 01:49:55;;;;;;;6.30;2.15;;;3.30;79.80;;;;;;6194120;23;20032;-80
2021/01/19 01:52:22;;;;;;;6.70;2.47;;;3.30;79.90;;;;;;6245614;23;20396;-81
2021/01/19 01:54:53;;;;;;;4.82;2.20;;;3.30;79.90;;;;;;6193914;23;20426;-81
2021/01/19 01:57:19;;;;;;;2.38;1.40;;;3.30;79.90;;;;;;6194044;23;20004;-80
2021/01/19 01:59:50;;;;;;;4.18;1.80;;;3.30;80.10;;;;;;6218945;23;20090;-81
2021/01/19 02:02:18;;;;;;;5.35;1.80;;;3.30;79.90;;;;;;6195051;23;20012;-81
2021/01/19 02:04:44;;;;;;;5.53;2.50;;;3.40;79.90;;;;;;6195060;23;20072;-81
2021/01/19 02:07:37;;;;;;;5.78;2.25;;;3.30;79.70;;;;;;6194634;23;20012;-81
2021/01/19 02:10:23;;;;;;;5.35;1.55;;;3.30;79.80;;;;;;6219217;23;20000;-81
2021/01/19 02:13:13;;;;;;;4.68;2.10;;;3.20;79.70;;;;;;6245732;23;20440;-81
2021/01/19 02:15:48;;;;;;;2.67;1.52;;;3.30;79.90;;;;;;6245426;23;20429;-81
2021/01/19 02:18:50;;;;;;;3.47;1.67;;;3.20;79.80;;;;;;6218775;23;20087;-80
2021/01/19 02:21:19;;;;;;;6.47;2.70;;;3.20;79.80;;;;;;6245637;23;20094;-81
2021/01/19 02:23:56;;;;;;;4.03;1.90;;;3.20;79.70;;;;;;6219178;23;19996;-81
2021/01/19 02:26:41;;;;;;;6.40;2.08;;;3.20;79.50;;;;;;6245872;23;20007;-81
2021/01/19 02:29:25;;;;;;;6.00;2.10;;;3.20;79.80;;;;;;6245614;23;20326;-80
2021/01/19 02:32:12;;;;;;;4.57;1.53;;;3.10;79.50;;;;;;6218736;23;20083;-81
2021/01/19 02:35:10;;;;;;;4.82;1.88;;;3.10;79.50;;;;;;6245166;23;20243;-81
2021/01/19 02:38:24;;;;;;;6.38;1.95;;;3.10;79.60;;;;;;6218768;23;20012;-81
2021/01/19 02:40:54;;;;;;;3.35;1.55;;;3.00;79.40;;;;;;6153808;23;20000;-80
2021/01/19 02:43:26;;;;;;;2.08;1.27;;;3.00;79.40;;;;;;6245612;23;20004;-80
2021/01/19 02:45:56;;;;;;;4.13;1.80;;;3.00;79.30;;;;;;6245659;23;20000;-80
2021/01/19 02:48:23;;;;;;;5.18;2.00;;;2.90;79.10;;;;;;6225377;23;20020;-80
2021/01/19 02:50:49;;;;;;;5.80;2.20;;;2.90;79.70;;;;;;6243720;23;20000;-80
2021/01/19 02:53:16;;;;;;;4.63;2.00;;;2.90;79.20;;;;;;6243944;23;20023;-81
2021/01/19 02:55:44;;;;;;;4.07;1.75;;;2.80;79.20;;;;;;6244466;23;20008;-81
2021/01/19 02:58:24;;;;;;;0.90;0.73;;;2.80;79.00;;;;;;6246298;23;20308;-81
2021/01/19 03:01:17;;;;;;;2.35;1.23;;;2.70;79.00;;;;;;6245578;23;20039;-81
2021/01/19 03:03:48;;;;;;;3.10;1.60;;;2.70;79.00;;;;;;6245623;23;20003;-81
2021/01/19 03:06:16;;;;;;;3.03;1.85;;;2.60;78.90;;;;;;6245944;23;20415;-80
2021/01/19 03:08:44;;;;;;;2.13;1.48;;;2.60;78.90;;;;;;6220685;23;20011;-80
2021/01/19 03:11:17;;;;;;;5.53;1.77;;;2.60;78.90;;;;;;6245732;23;20012;-81
2021/01/19 03:13:49;;;;;;;6.53;2.28;;;2.50;79.00;;;;;;6245470;23;20027;-80
2021/01/19 03:16:17;;;;;;;3.17;1.70;;;2.50;79.00;;;;;;6220322;23;20008;-80
2021/01/19 03:18:45;;;;;;;3.45;1.73;;;2.50;78.90;;;;;;6245730;23;20107;-81
2021/01/19 03:21:11;;;;;;;6.25;2.28;;;2.40;78.90;;;;;;6245324;23;20004;-80
2021/01/19 03:23:38;;;;;;;4.28;1.77;;;2.40;79.00;;;;;;6245483;23;20066;-80
2021/01/19 03:26:04;;;;;;;3.42;1.55;;;2.40;79.00;;;;;;6247018;22;20004;-80
2021/01/19 03:28:31;;;;;;;3.70;1.15;;;2.30;78.90;;;;;;6245577;23;20066;-80
2021/01/19 03:30:57;;;;;;;3.25;1.50;;;2.30;78.80;;;;;;6247014;23;20008;-80
2021/01/19 03:33:24;;;;;;;5.28;1.77;;;2.30;78.90;;;;;;6245409;23;20490;-80
2021/01/19 03:35:50;;;;;;;2.13;1.42;;;2.30;79.00;;;;;;6245366;23;20338;-80
2021/01/19 03:38:16;;;;;;;3.50;1.77;;;2.20;79.00;;;;;;6245803;23;20015;-80
2021/01/19 03:40:42;;;;;;;4.70;1.90;;;2.20;79.00;;;;;;6245648;23;20083;-80
2021/01/19 03:43:08;;;;;;;2.25;0.93;;;2.20;79.10;;;;;;6220085;23;20039;-80
2021/01/19 03:45:34;;;;;;;4.03;2.00;;;2.20;79.00;;;;;;6245395;23;20008;-80
2021/01/19 03:48:00;;;;;;;3.45;1.70;;;2.20;79.00;;;;;;6244993;23;20024;-80
2021/01/19 03:50:28;;;;;;;4.43;1.90;;;2.20;78.90;;;;;;6245388;23;20736;-80
2021/01/19 03:52:55;;;;;;;4.15;1.83;;;2.20;79.00;;;;;;6245160;23;20020;-80
2021/01/19 03:55:21;;;;;;;3.78;1.67;;;2.20;78.90;;;;;;6245361;23;20004;-80
2021/01/19 03:57:47;;;;;;;4.28;1.73;;;2.20;78.90;;;;;;6220270;23;20453;-80
2021/01/19 04:00:17;;;;;;;6.45;1.90;;;2.10;78.80;;;;;;6245279;23;20027;-80
2021/01/19 04:02:43;;;;;;;1.65;0.93;;;2.10;78.80;;;;;;6245196;23;20019;-80
2021/01/19 04:05:09;;;;;;;1.30;1.10;;;2.10;78.80;;;;;;6245751;23;20003;-80
2021/01/19 04:07:40;;;;;;;6.18;1.90;;;2.00;78.80;;;;;;6245299;23;20031;-80
2021/01/19 04:10:12;;;;;;;1.00;0.90;;;2.00;78.80;;;;;;6246772;22;20334;-80
2021/01/19 04:12:38;;;;;;;4.57;1.98;;;2.00;78.90;;;;;;6244941;23;20469;-80
2021/01/19 04:15:05;;;;;;;2.67;1.77;;;2.00;78.90;;;;;;6245398;23;20008;-80
2021/01/19 04:17:31;;;;;;;3.90;2.00;;;2.00;78.90;;;;;;6220058;23;20438;-80
2021/01/19 04:19:57;;;;;;;3.85;1.80;;;2.00;78.90;;;;;;6245621;23;20444;-80
2021/01/19 04:22:24;;;;;;;7.63;2.08;;;2.00;78.80;;;;;;6245063;23;20075;-80
2021/01/19 04:24:51;;;;;;;5.20;1.83;;;1.90;78.70;;;;;;6246413;23;20004;-80
2021/01/19 04:27:17;;;;;;;5.03;2.05;;;1.90;78.70;;;;;;6219815;23;20005;-80
2021/01/19 04:29:43;;;;;;;3.53;1.58;;;1.90;78.70;;;;;;6219511;23;20426;-80
2021/01/19 04:32:09;;;;;;;3.00;1.77;;;1.90;78.70;;;;;;6244796;23;20099;-80
2021/01/19 04:34:35;;;;;;;2.90;1.30;;;1.90;78.70;;;;;;6244711;23;20024;-80
2021/01/19 04:37:01;;;;;;;2.40;1.42;;;1.90;78.90;;;;;;6244893;23;20058;-80
2021/01/19 04:39:26;;;;;;;2.63;1.65;;;1.90;79.10;;;;;;6219499;23;20008;-80
2021/01/19 04:41:52;;;;;;;3.83;1.95;;;1.90;79.10;;;;;;6244722;23;20439;-80
2021/01/19 04:44:19;;;;;;;4.60;2.03;;;1.90;79.00;;;;;;6219547;23;20008;-79
2021/01/19 04:46:48;;;;;;;3.22;1.88;;;1.90;78.90;;;;;;6244839;23;20015;-79
2021/01/19 04:49:16;;;;;;;4.65;1.80;;;2.00;79.10;;;;;;6245391;23;20023;-79
2021/01/19 04:51:46;;;;;;;3.35;1.70;;;2.00;79.10;;;;;;6246925;22;20410;-79
2021/01/19 04:54:16;;;;;;;6.03;1.80;;;2.00;79.20;;;;;;6244605;23;20012;-79
2021/01/19 04:56:49;;;;;;;4.80;2.10;;;2.10;79.90;;;;;;6246150;22;20096;-80
2021/01/19 04:59:23;;;;;;;10.10;2.63;;;2.10;79.30;;;;;;6244619;23;20066;-80
2021/01/19 05:02:15;;;;;;;4.78;2.17;;;2.10;79.10;;;;;;6244200;23;20131;-80
2021/01/19 05:04:51;;;;;;;5.85;2.20;;;2.10;78.90;;;;;;6244440;23;20015;-79
2021/01/19 05:07:33;;;;;;;3.40;1.90;;;2.10;78.90;;;;;;6245838;22;20008;-80
2021/01/19 05:10:04;;;;;;;4.75;1.92;;;2.10;78.90;;;;;;6244487;23;20438;-80
2021/01/19 05:12:44;;;;;;;2.13;1.48;;;2.10;78.80;;;;;;6245997;22;20061;-80
2021/01/19 05:15:14;;;;;;;2.88;1.70;;;2.10;78.90;;;;;;6244278;23;20058;-80
2021/01/19 05:17:41;;;;;;;2.95;1.95;;;2.10;79.00;;;;;;6244204;23;20434;-80
2021/01/19 05:20:09;;;;;;;3.78;1.58;;;2.10;79.00;;;;;;6245709;22;20114;-80
2021/01/19 05:22:35;;;;;;;4.88;2.20;;;2.10;79.00;;;;;;6219261;23;20081;-80
2021/01/19 05:25:01;;;;;;;4.82;1.70;;;2.10;78.90;;;;;;6219055;23;20004;-79
2021/01/19 05:27:27;;;;;;;2.17;1.35;;;2.10;79.60;;;;;;6219155;23;20015;-80
2021/01/19 05:30:05;;;;;;;3.95;2.00;;;2.10;78.90;;;;;;6244456;23;20000;-80
2021/01/19 05:32:39;;;;;;;6.03;2.53;;;2.10;79.00;;;;;;6243965;23;20090;-80
2021/01/19 05:35:19;;;;;;;14.73;5.88;;;2.10;79.00;;;;;;6219483;23;20009;-80
2021/01/19 05:37:58;;;;;;;9.55;2.60;;;2.10;79.10;;;;;;6244237;23;20430;-80
2021/01/19 05:40:25;;;;;;;5.82;2.63;;;2.20;79.10;;;;;;6218762;23;20024;-80
2021/01/19 05:42:52;;;;;;;6.22;2.20;;;2.20;79.10;;;;;;6244635;23;20322;-80
2021/01/19 05:45:18;;;;;;;2.13;1.40;;;2.20;79.30;;;;;;6219117;23;20015;-80
2021/01/19 05:47:44;;;;;;;2.63;1.27;;;2.20;79.20;;;;;;6244066;22;20012;-79
2021/01/19 05:50:10;;;;;;;7.05;2.30;;;2.20;79.10;;;;;;6245528;23;20006;-80
2021/01/19 05:52:36;;;;;;;6.13;2.45;;;2.20;79.00;;;;;;6245376;23;20012;-80
2021/01/19 05:55:03;;;;;;;4.80;2.10;;;2.30;79.00;;;;;;6218883;23;20012;-80
2021/01/19 05:57:29;;;;;;;8.10;2.33;;;2.20;79.00;;;;;;6218762;23;20434;-80
2021/01/19 06:00:00;;;;;;;4.85;2.13;;;2.20;78.80;;;;;;6245513;23;20031;-80
2021/01/19 06:02:42;;;;;;;4.38;2.10;;;2.30;79.00;;;;;;6218573;23;20062;-80
2021/01/19 06:05:15;;;;;;;4.70;3.08;;;2.30;78.90;;;;;;6218883;23;20004;-80
2021/01/19 06:07:47;;;;;;;4.15;1.95;;;2.30;78.90;;;;;;6245517;23;20000;-80
2021/01/19 06:10:13;;;;;;;5.22;2.08;;;2.20;78.90;;;;;;6218769;23;20007;-80
2021/01/19 06:12:39;;;;;;;5.32;2.40;;;2.30;78.90;;;;;;6218667;23;20058;-80
2021/01/19 06:15:06;;;;;;;3.50;1.90;;;2.20;78.70;;;;;;6193471;23;20004;-81
2021/01/19 06:17:41;;;;;;;6.53;2.55;;;2.20;78.70;;;;;;6219385;23;20024;-91
2021/01/19 06:20:08;;;;;;;4.82;1.98;;;2.30;79.10;;;;;;6195940;23;20014;-91
2021/01/19 06:22:38;;;;;;;6.55;2.58;;;2.20;78.80;;;;;;6221500;23;20434;-88
2021/01/19 06:25:10;;;;;;;5.80;2.40;;;2.20;78.80;;;;;;6219531;23;20011;-88
2021/01/19 06:27:37;;;;;;;5.85;2.47;;;2.20;78.70;;;;;;6218890;23;20463;-87
2021/01/19 06:30:12;;;;;;;5.90;2.60;;;2.20;78.60;;;;;;6219495;23;20463;-87
2021/01/19 06:32:48;;;;;;;4.45;2.03;;;2.10;78.60;;;;;;6220726;23;20062;-87
2021/01/19 06:35:23;;;;;;;4.45;2.30;;;2.20;78.60;;;;;;6221275;23;20488;-87
2021/01/19 06:37:51;;;;;;;6.68;2.63;;;2.10;78.70;;;;;;6220657;23;20042;-87
2021/01/19 06:40:23;;;;;;;5.05;2.40;;;2.10;78.60;;;;;;6221154;23;20008;-87
2021/01/19 06:43:21;;;;;;;5.40;2.58;;;2.10;78.80;;;;;;6220812;23;20422;-87
2021/01/19 06:45:47;;;;;;;8.50;2.45;;;2.10;78.70;;;;;;6247895;23;20083;-83
2021/01/19 06:48:16;;;;;;;4.40;2.17;;;2.10;78.70;;;;;;6231600;22;20019;-88
2021/01/19 06:50:44;;;;;;;0.70;0.70;;;2.10;78.80;;;;;;6252139;22;20426;-88
2021/01/19 06:53:14;;;;;;;7.55;2.45;;;2.20;79.40;;;;;;6252390;22;20501;-88
2021/01/19 06:55:58;;;;;;;5.93;2.20;;;2.20;78.90;;;;;;6277935;22;20103;-90
2021/01/19 06:58:26;;;;;;;4.70;2.15;;;2.20;79.00;;;;;;6279725;22;20110;-88
2021/01/19 07:01:00;;;;;;;4.50;2.05;;;2.20;79.00;;;;;;6278051;22;20007;-88
2021/01/19 07:03:27;;;;;;;4.20;1.88;;;2.20;78.90;;;;;;6252067;22;20422;-90
2021/01/19 07:05:55;;;;;;;4.18;1.73;;;2.20;78.70;;;;;;6254359;22;20322;-87
2021/01/19 07:12:50;;;;;;;4.90;1.65;;;2.20;78.50;;;;;;6277906;22;20085;-86
2021/01/19 07:15:20;;;;;;;4.32;2.00;;;2.20;78.40;;;;;;6209280;22;20091;-86
2021/01/19 07:18:02;;;;;;;4.72;2.10;;;2.20;78.50;;;;;;6250918;22;20015;-85
2021/01/19 07:20:35;;;;;;;4.68;2.15;;;2.10;78.50;;;;;;6251323;22;20037;-86
2021/01/19 07:23:46;;;;;;;;;;;;;;;;;;;;;
2021/01/19 07:26:21;;;;;;;5.38;2.38;;;2.20;78.70;;;;;;6277838;22;20095;-87
2021/01/19 07:28:48;;;;;;;6.00;2.20;;;2.20;78.60;;;;;;6251110;22;20429;-87
2021/01/19 07:31:19;;;;;;;5.40;2.40;;;2.20;78.40;;;;;;6226111;22;20011;-87
2021/01/19 07:34:18;;;;;;;;;;;;;;;;;;;;;
2021/01/19 07:36:55;;;;;;;4.32;2.00;;;2.20;78.60;;;;;;6276861;22;20012;-86
2021/01/19 07:39:21;;;;;;;0.73;0.73;;;2.20;78.50;;;;;;6267681;22;20074;-87
2021/01/19 07:41:48;;;;;;;6.35;2.20;;;2.20;78.60;;;;;;6266400;22;20011;-86
2021/01/19 07:44:24;;;;;;;4.40;2.15;;;2.20;78.60;;;;;;6245594;22;20091;-87
2021/01/19 07:47:06;;;;;;;5.72;2.05;;;2.30;78.80;;;;;;6266041;22;20007;-87
2021/01/19 07:49:32;;;;;;;4.05;2.10;;;2.30;78.80;;;;;;6254138;22;20012;-88
2021/01/19 07:52:11;;;;;;;7.72;2.03;;;2.40;79.00;;;;;;6228189;22;20015;-89
2021/01/19 07:54:37;;;;;;;9.20;2.40;;;2.40;78.90;;;;;;6252573;22;20520;-88
2021/01/19 07:57:36;;;;;;;4.13;1.98;;;2.50;79.00;;;;;;6226267;22;19999;-87
2021/01/19 08:00:07;;;;;;;4.38;2.00;;;2.50;79.00;;;;;;6238833;22;20010;-87
2021/01/19 08:02:33;;;;;;;5.68;2.03;;;2.60;79.10;;;;;;6226847;22;20085;-90
2021/01/19 08:05:00;;;;;;;4.47;2.03;;;2.70;79.00;;;;;;6229782;22;20501;-89
2021/01/19 08:07:57;;;;;;;6.65;2.17;;;2.70;79.20;;;;;;6227019;22;20015;-88
2021/01/19 08:10:33;;;;;;;;;;;;;;;;;;;;;
2021/01/19 08:13:18;;;;;;;3.85;2.13;;;2.80;79.00;;;;;;6278193;22;20126;-88
2021/01/19 08:15:51;;;;;;;7.10;2.40;;;2.80;78.90;;;;;;6251698;22;20430;-89
2021/01/19 08:18:20;;;;;;;7.07;2.38;;;2.90;78.70;;;;;;6253231;22;20042;-87
2021/01/19 08:21:01;;;;;;;;;;;;;;;;;;;;;
2021/01/19 08:23:34;;;;;;;6.45;2.20;;;2.90;78.70;;;;;;6258497;22;20082;-90
2021/01/19 08:29:30;;;;;;;7.60;2.67;;;3.00;79.00;;;;;;6282831;22;20719;-90
2021/01/19 08:32:01;;;;;;;5.60;1.67;;;3.00;78.80;;;;;;6233792;22;20434;-91
2021/01/19 08:34:32;;;;;;;5.47;1.95;;;3.10;79.00;;;;;;6258595;22;20011;-90
2021/01/19 08:37:03;;;;;;;6.07;2.40;;;3.10;78.70;;;;;;6233765;22;20003;-92
2021/01/19 08:39:29;;;;;;;5.60;1.85;;;3.10;78.50;;;;;;6231142;22;20007;-89
2021/01/19 08:41:55;;;;;;;6.22;2.40;;;3.10;78.70;;;;;;6252509;22;20007;-90
2021/01/19 08:44:24;;;;;;;5.45;2.33;;;3.10;78.80;;;;;;6253370;22;20007;-90
2021/01/19 08:46:51;;;;;;;4.53;2.50;;;3.20;78.70;;;;;;6229028;22;20018;-90
2021/01/19 08:49:17;;;;;;;4.40;1.90;;;3.20;78.60;;;;;;6256684;22;20497;-89
2021/01/19 08:51:49;;;;;;;5.05;2.65;;;3.20;78.50;;;;;;6232948;22;20000;-92
2021/01/19 08:54:15;;;;;;;8.95;2.50;;;3.20;78.60;;;;;;6225528;22;20019;-90
2021/01/19 08:56:44;;;;;;;7.72;2.60;;;3.30;78.70;;;;;;6225935;22;20162;-89
2021/01/19 08:59:14;;;;;;;4.47;2.25;;;3.40;78.90;;;;;;6253160;22;20061;-90
2021/01/19 09:01:48;;;;;;;3.65;1.75;;;3.40;79.50;;;;;;6255376;22;20028;-90
2021/01/19 09:04:26;;;;;;;6.43;2.03;;;3.50;78.80;;;;;;6277661;22;20015;-87
2021/01/19 09:06:53;;;;;;;4.63;2.05;;;3.50;78.80;;;;;;6250873;22;20038;-90
2021/01/19 09:09:23;;;;;;;4.97;2.20;;;3.60;79.70;;;;;;6251555;22;20082;-90
2021/01/19 09:11:52;;;;;;;3.90;1.80;;;3.70;79.40;;;;;;6251995;22;20008;-87
2021/01/19 09:22:23;;;;;;;;;;;;;;;;;;;;;
2021/01/19 09:24:52;;;;;;;5.60;2.50;;;4.00;79.30;;;;;;6126064;23;20093;-90
2021/01/19 09:27:25;;;;;;;7.72;2.92;;;4.20;79.30;;;;;;6192211;22;20011;-89
2021/01/19 09:30:10;;;;;;;8.25;2.47;;;4.30;79.10;;;;;;6225601;22;20007;-90
2021/01/19 09:32:50;;;;;;;6.95;2.45;;;4.40;79.40;;;;;;6233940;22;20046;-90
2021/01/19 09:39:17;;;;;;;;;;;;;;;;;;;;;
2021/01/19 09:42:10;;;;;;;;;;;;;;;;;;;;;
2021/01/19 09:55:05;;;;;;;9.82;3.35;;;5.00;78.90;;;;;;6165050;22;20026;-90
2021/01/19 09:57:40;;;;;;;6.90;2.80;;;5.00;78.60;;;;;;6254969;22;20019;-91
2021/01/19 10:56:00;;;;;;;10.00;3.95;;;5.80;78.20;;;;;;6242966;22;20024;-89
2021/01/19 10:58:29;;;;;;;6.45;3.15;;;5.80;78.00;;;;;;6191154;23;20013;-90
2021/01/19 11:01:00;;;;;;;6.05;2.67;;;5.90;78.20;;;;;;6191013;23;20040;-89
2021/01/19 11:03:26;;;;;;;7.90;2.90;;;5.90;78.00;;;;;;6190668;23;20001;-89
2021/01/19 11:05:56;;;;;;;9.07;3.15;;;5.60;77.60;;;;;;6165649;23;20020;-90
2021/01/19 11:09:22;;;;;;;;;;;;;;;;;;;;;
2021/01/19 11:11:51;;;;;;;9.83;3.37;;;5.60;77.10;;;;;;6212215;23;20397;-89
2021/01/19 11:14:16;;;;;;;6.38;2.70;;;5.50;76.60;;;;;;6190586;23;20013;-89
2021/01/19 11:16:53;;;;;;;9.70;3.42;;;5.40;77.00;;;;;;6189928;23;20030;-89
2021/01/19 11:31:37;;;;;;;;;;;;;;;;;;;;;
2021/01/19 11:37:45;;;;;;;8.52;3.13;;;5.10;77.20;;;;;;5850861;24;20022;-88
2021/01/19 11:40:14;;;;;;;12.10;4.15;;;5.00;76.80;;;;;;5851137;24;20052;-93
2021/01/19 11:42:39;;;;;;;6.05;2.65;;;5.00;77.50;;;;;;5903786;24;20010;-88
2021/01/19 11:45:14;;;;;;;11.77;3.40;;;5.00;77.20;;;;;;6010566;23;20062;-90
2021/01/19 11:47:42;;;;;;;8.90;3.40;;;5.00;77.60;;;;;;6081874;23;20017;-89
2021/01/19 11:50:12;;;;;;;5.32;2.40;;;5.10;76.90;;;;;;6083219;23;20005;-91
2021/01/19 11:52:40;;;;;;;7.82;3.45;;;5.00;77.00;;;;;;6185953;23;20075;-91
2021/01/19 11:55:07;;;;;;;8.27;3.47;;;5.00;76.70;;;;;;6195528;23;20000;-92
2021/01/19 11:57:36;;;;;;;10.23;3.70;;;4.90;76.50;;;;;;6233495;23;20426;-87
2021/01/19 12:00:22;;;;;;;;;;;;;;;;;;;;;
2021/01/19 12:03:58;;;;;;;;;;;;;;;;;;;;;
2021/01/19 12:10:14;;;;;;;11.40;5.05;;;4.60;76.60;;;;;;6246439;23;20019;-89
2021/01/19 12:12:40;;;;;;;8.18;3.78;;;4.50;75.60;;;;;;6242382;23;20043;-88
2021/01/19 12:15:08;;;;;;;10.25;4.43;;;4.40;76.30;;;;;;6249923;23;20008;-89
2021/01/19 12:17:34;;;;;;;10.38;4.47;;;4.30;76.50;;;;;;6221462;23;20004;-88
2021/01/19 12:19:59;;;;;;;4.15;1.90;;;4.30;76.30;;;;;;6220948;23;20019;-87
2021/01/19 12:22:25;;;;;;;12.00;5.05;;;4.40;76.90;;;;;;6245976;23;20023;-86
2021/01/19 12:24:51;;;;;;;12.07;4.97;;;4.30;76.70;;;;;;6245919;23;20012;-88
2021/01/19 12:27:17;;;;;;;14.00;6.45;;;4.30;76.50;;;;;;6246545;23;20327;-89
2021/01/19 12:29:42;;;;;;;10.82;5.05;;;4.40;76.50;;;;;;6249439;23;20435;-90
2021/01/19 12:32:10;;;;;;;12.02;5.28;;;4.40;77.00;;;;;;6246465;23;20000;-91
2021/01/19 12:34:36;;;;;;;9.35;3.80;;;4.40;76.40;;;;;;6246062;23;20016;-89
2021/01/19 12:37:02;;;;;;;10.85;4.93;;;4.40;76.30;;;;;;6246276;23;20079;-90
2021/01/19 12:39:28;;;;;;;11.30;4.93;;;4.30;75.90;;;;;;6246495;23;20012;-91
2021/01/19 12:41:57;;;;;;;9.65;4.15;;;4.20;76.00;;;;;;6221532;23;20023;-91
2021/01/19 12:48:11;;;;;;;11.43;5.32;;;4.20;76.60;;;;;;6247780;23;20066;-83
2021/01/19 12:50:45;;;;;;;13.77;5.07;;;4.10;75.70;;;;;;6235175;23;20018;-88
2021/01/19 12:53:11;;;;;;;9.83;4.30;;;4.00;75.80;;;;;;6221012;23;20099;-89
2021/01/19 12:55:39;;;;;;;10.52;4.03;;;3.90;75.90;;;;;;6245668;23;20011;-88
2021/01/19 12:58:07;;;;;;;11.27;5.50;;;3.80;75.80;;;;;;6245205;23;20500;-89
2021/01/19 13:00:33;;;;;;;11.52;4.53;;;3.80;76.20;;;;;;6220526;23;20012;-86
2021/01/19 13:02:59;;;;;;;14.95;6.15;;;3.80;76.50;;;;;;6245592;23;20082;-88
2021/01/19 13:05:25;;;;;;;12.77;5.93;;;3.80;76.40;;;;;;6220572;23;20012;-88
2021/01/19 13:07:55;;;;;;;12.27;4.88;;;3.80;76.50;;;;;;6246280;23;19996;-85
2021/01/19 13:10:24;;;;;;;12.20;5.47;;;3.80;76.90;;;;;;6244773;23;20079;-85
2021/01/19 13:12:57;;;;;;;7.38;3.35;;;4.00;76.80;;;;;;6244438;23;20036;-86
2021/01/19 13:15:57;;;;;;;;;;;;;;;;;;;;;
2021/01/19 13:18:30;;;;;;;8.63;3.40;;;3.90;76.00;;;;;;6246325;23;20087;-88
2021/01/19 13:21:18;;;;;;;8.30;3.92;;;3.80;76.30;;;;;;6245828;22;20014;-86
2021/01/19 13:27:07;;;;;;;15.02;5.70;;;3.70;76.00;;;;;;6218138;22;20030;-79
2021/01/19 13:29:33;;;;;;;14.10;5.78;;;3.60;75.90;;;;;;6245761;23;20008;-81
2021/01/19 13:32:00;;;;;;;12.07;4.95;;;3.60;76.20;;;;;;6269855;22;20015;-80
2021/01/19 13:34:29;;;;;;;9.93;4.80;;;3.60;76.30;;;;;;6245245;22;20020;-79
2021/01/19 13:36:56;;;;;;;7.45;3.47;;;3.60;76.70;;;;;;6243963;23;20453;-79
2021/01/19 13:39:22;;;;;;;8.50;3.25;;;3.60;76.30;;;;;;6245918;22;20000;-79
2021/01/19 13:41:52;;;;;;;10.82;4.53;;;3.50;76.10;;;;;;6244223;23;20001;-80
2021/01/19 13:44:19;;;;;;;12.18;5.18;;;3.40;76.30;;;;;;6245198;23;20427;-79
2021/01/19 13:46:44;;;;;;;11.35;5.22;;;3.40;76.60;;;;;;6244150;23;20349;-79
2021/01/19 13:49:10;;;;;;;8.43;3.67;;;3.40;76.10;;;;;;6243736;23;20011;-79
2021/01/19 13:51:35;;;;;;;9.02;4.00;;;3.30;76.00;;;;;;6243911;23;20039;-79
2021/01/19 13:54:01;;;;;;;11.02;5.13;;;3.20;76.00;;;;;;6245092;23;20090;-79
2021/01/19 13:56:27;;;;;;;11.88;5.72;;;3.20;76.10;;;;;;6218592;23;20020;-81
2021/01/19 13:58:53;;;;;;;7.68;3.35;;;3.10;76.30;;;;;;6245260;23;20052;-81
2021/01/19 14:01:18;;;;;;;12.38;6.10;;;3.10;76.50;;;;;;6244061;23;20386;-81
2021/01/19 14:03:44;;;;;;;13.27;5.60;;;3.10;76.30;;;;;;6243988;23;20019;-79
2021/01/19 14:06:11;;;;;;;11.35;4.80;;;3.00;76.40;;;;;;6218408;23;20004;-80
2021/01/19 14:08:39;;;;;;;9.98;4.35;;;3.10;77.00;;;;;;6245157;22;20083;-81
2021/01/19 14:11:04;;;;;;;10.18;4.57;;;3.10;76.60;;;;;;6244271;23;20076;-80
2021/01/19 14:13:30;;;;;;;9.10;3.80;;;3.00;76.40;;;;;;6245428;23;20094;-80
2021/01/19 14:15:59;;;;;;;11.15;4.88;;;3.10;76.60;;;;;;6243699;23;20008;-80
2021/01/19 14:18:26;;;;;;;12.65;5.28;;;3.00;76.80;;;;;;6244024;23;20010;-80
2021/01/19 14:20:53;;;;;;;9.02;3.92;;;3.00;76.60;;;;;;6245081;22;20054;-79
2021/01/19 14:23:19;;;;;;;12.80;4.70;;;3.00;77.00;;;;;;6243807;23;20012;-80
2021/01/19 14:25:44;;;;;;;9.88;4.10;;;3.10;76.80;;;;;;6244007;23;20012;-80
2021/01/19 14:28:10;;;;;;;8.95;3.92;;;3.00;76.60;;;;;;6244150;23;20004;-79
2021/01/19 14:30:36;;;;;;;13.57;6.05;;;3.00;76.80;;;;;;6243894;23;20087;-79
2021/01/19 14:33:02;;;;;;;11.30;4.85;;;2.90;76.80;;;;;;6245117;22;20035;-79
2021/01/19 14:35:28;;;;;;;8.35;3.70;;;2.90;76.90;;;;;;6243948;23;20446;-79
2021/01/19 14:37:53;;;;;;;12.80;5.13;;;2.80;76.60;;;;;;6243809;23;20396;-79
2021/01/19 14:40:19;;;;;;;12.38;5.85;;;2.80;76.80;;;;;;6244103;23;20008;-80
2021/01/19 14:42:45;;;;;;;11.65;4.70;;;2.80;77.10;;;;;;6243509;23;20004;-81
2021/01/19 14:45:13;;;;;;;12.02;4.95;;;2.90;77.10;;;;;;6218586;23;20035;-78
2021/01/19 14:47:40;;;;;;;10.60;4.20;;;2.90;77.30;;;;;;6244254;23;20015;-79
2021/01/19 14:50:06;;;;;;;10.95;4.15;;;2.90;77.30;;;;;;6193165;23;20142;-80
2021/01/19 14:52:31;;;;;;;11.93;5.03;;;3.00;77.60;;;;;;6244304;23;20004;-81
2021/01/19 14:54:57;;;;;;;6.82;3.42;;;3.00;77.50;;;;;;6245980;23;20011;-79
2021/01/19 14:57:24;;;;;;;11.70;5.35;;;2.90;77.40;;;;;;6220306;23;20027;-80
2021/01/19 14:59:50;;;;;;;8.65;3.33;;;3.00;77.40;;;;;;6245139;23;20019;-80
2021/01/19 15:02:16;;;;;;;10.00;4.30;;;2.90;77.40;;;;;;6220418;23;20494;-80
2021/01/19 15:04:42;;;;;;;8.90;3.00;;;3.00;77.50;;;;;;6245247;23;20014;-79
2021/01/19 15:07:09;;;;;;;7.20;3.22;;;3.00;77.40;;;;;;6245871;23;20036;-79
2021/01/19 15:09:35;;;;;;;5.55;2.70;;;3.00;77.70;;;;;;6246101;23;20011;-80
2021/01/19 15:12:09;;;;;;;3.53;2.00;;;3.10;77.90;;;;;;6246983;22;20000;-79
2021/01/19 15:14:38;;;;;;;7.20;2.80;;;3.00;77.80;;;;;;6245421;23;20012;-79
2021/01/19 15:17:04;;;;;;;8.93;3.17;;;3.10;78.00;;;;;;6245379;23;20004;-79
2021/01/19 15:19:31;;;;;;;8.75;2.85;;;3.10;78.10;;;;;;6245215;23;20069;-81